sensor_id;sensor_type;location;lat;lon;timestamp;pressure;altitude;pressure_sealevel;temperature;humidity
21658;BME280;10990;48.174;9.782;2023-04-05T00:00:57;95834.97;;;-2.16;100.00
21658;BME280;10990;48.174;9.782;2023-04-05T00:03:24;95829.13;;;-2.21;100.00
21658;BME280;10990;48.174;9.782;2023-04-05T00:05:51;95832.25;;;-2.34;100.00
21658;BME280;10990;48.174;9.782;2023-04-05T00:08:19;95816.25;;;-2.42;100.00
21658;BME280;10990;48.174;9.782;2023-04-05T00:10:51;95802.25;;;-2.19;100.00
21658;BME280;10990;48.174;9.782;2023-04-05T00:13:18;95792.53;;;-2.14;100.00
21658;BME280;10990;48.174;9.782;2023-04-05T00:15:46;95811.28;;;-2.09;100.00
21658;BME280;10990;48.174;9.782;2023-04-05T00:18:13;95806.59;;;-2.00;100.00
21658;BME280;10990;48.174;9.782;2023-04-05T00:20:46;95797.97;;;-1.82;100.00
21658;BME280;10990;48.174;9.782;2023-04-05T00:23:13;95809.13;;;-1.80;100.00
21658;BME280;10990;48.174;9.782;2023-04-05T00:25:42;95805.34;;;-1.92;100.00
21658;BME280;10990;48.174;9.782;2023-04-05T00:28:08;95809.81;;;-1.95;100.00
21658;BME280;10990;48.174;9.782;2023-04-05T00:30:35;95810.72;;;-2.15;100.00
21658;BME280;10990;48.174;9.782;2023-04-05T00:33:04;95793.44;;;-1.96;100.00
21658;BME280;10990;48.174;9.782;2023-04-05T00:35:30;95788.34;;;-2.16;100.00
21658;BME280;10990;48.174;9.782;2023-04-05T00:37:57;95764.88;;;-2.13;100.00
21658;BME280;10990;48.174;9.782;2023-04-05T00:40:24;95752.25;;;-2.02;100.00
21658;BME280;10990;48.174;9.782;2023-04-05T00:42:51;95744.63;;;-2.05;100.00
21658;BME280;10990;48.174;9.782;2023-04-05T00:45:18;95739.69;;;-2.11;100.00
21658;BME280;10990;48.174;9.782;2023-04-05T00:47:44;95726.16;;;-2.16;100.00
21658;BME280;10990;48.174;9.782;2023-04-05T00:50:13;95719.84;;;-2.11;100.00
21658;BME280;10990;48.174;9.782;2023-04-05T00:52:42;95711.00;;;-2.07;100.00
21658;BME280;10990;48.174;9.782;2023-04-05T00:55:10;95711.28;;;-2.13;100.00
21658;BME280;10990;48.174;9.782;2023-04-05T00:57:37;95712.56;;;-2.21;100.00
21658;BME280;10990;48.174;9.782;2023-04-05T01:00:06;95696.38;;;-2.27;100.00
21658;BME280;10990;48.174;9.782;2023-04-05T01:02:40;95686.09;;;-2.28;100.00
21658;BME280;10990;48.174;9.782;2023-04-05T01:05:22;95666.38;;;-2.31;100.00
21658;BME280;10990;48.174;9.782;2023-04-05T01:07:56;95670.72;;;-2.50;100.00
21658;BME280;10990;48.174;9.782;2023-04-05T01:10:30;95655.78;;;-2.45;100.00
21658;BME280;10990;48.174;9.782;2023-04-05T01:12:58;95636.06;;;-2.47;100.00
21658;BME280;10990;48.174;9.782;2023-04-05T01:15:25;95611.69;;;-2.43;100.00
21658;BME280;10990;48.174;9.782;2023-04-05T01:17:52;95596.69;;;-2.37;100.00
21658;BME280;10990;48.174;9.782;2023-04-05T01:20:23;95591.94;;;-2.27;100.00
21658;BME280;10990;48.174;9.782;2023-04-05T01:23:16;95588.78;;;-2.34;100.00
21658;BME280;10990;48.174;9.782;2023-04-05T01:31:45;95562.66;;;-2.46;100.00
21658;BME280;10990;48.174;9.782;2023-04-05T01:34:19;95565.84;;;-2.59;100.00
21658;BME280;10990;48.174;9.782;2023-04-05T01:36:53;95557.53;;;-2.48;100.00
21658;BME280;10990;48.174;9.782;2023-04-05T01:39:22;95556.88;;;-2.71;100.00
21658;BME280;10990;48.174;9.782;2023-04-05T01:41:49;95545.91;;;-2.76;100.00
21658;BME280;10990;48.174;9.782;2023-04-05T01:44:16;95545.34;;;-2.82;100.00
21658;BME280;10990;48.174;9.782;2023-04-05T01:46:44;95543.53;;;-2.99;100.00
21658;BME280;10990;48.174;9.782;2023-04-05T01:49:12;95511.66;;;-2.81;100.00
21658;BME280;10990;48.174;9.782;2023-04-05T01:51:39;95503.03;;;-2.81;100.00
21658;BME280;10990;48.174;9.782;2023-04-05T01:54:07;95483.72;;;-2.74;100.00
21658;BME280;10990;48.174;9.782;2023-04-05T01:56:34;95487.91;;;-2.72;100.00
21658;BME280;10990;48.174;9.782;2023-04-05T01:59:02;95484.84;;;-2.80;100.00
21658;BME280;10990;48.174;9.782;2023-04-05T02:01:30;95476.59;;;-2.88;100.00
21658;BME280;10990;48.174;9.782;2023-04-05T02:03:58;95479.09;;;-3.04;100.00
21658;BME280;10990;48.174;9.782;2023-04-05T02:06:25;95458.09;;;-2.98;100.00
21658;BME280;10990;48.174;9.782;2023-04-05T02:08:52;95452.94;;;-3.17;100.00
21658;BME280;10990;48.174;9.782;2023-04-05T02:11:19;95443.91;;;-3.08;100.00
21658;BME280;10990;48.174;9.782;2023-04-05T02:13:45;95430.16;;;-2.91;100.00
21658;BME280;10990;48.174;9.782;2023-04-05T02:16:12;95421.75;;;-2.77;100.00
21658;BME280;10990;48.174;9.782;2023-04-05T02:18:39;95422.06;;;-2.83;100.00
21658;BME280;10990;48.174;9.782;2023-04-05T02:21:09;95442.25;;;-3.09;100.00
21658;BME280;10990;48.174;9.782;2023-04-05T02:23:36;95430.69;;;-3.02;100.00
21658;BME280;10990;48.174;9.782;2023-04-05T02:26:03;95427.34;;;-3.04;100.00
21658;BME280;10990;48.174;9.782;2023-04-05T02:28:30;95409.84;;;-2.99;100.00
21658;BME280;10990;48.174;9.782;2023-04-05T02:30:57;95420.63;;;-3.08;100.00
21658;BME280;10990;48.174;9.782;2023-04-05T02:33:23;95413.34;;;-3.00;100.00
21658;BME280;10990;48.174;9.782;2023-04-05T02:35:52;95416.63;;;-2.96;100.00
21658;BME280;10990;48.174;9.782;2023-04-05T02:38:20;95414.69;;;-3.10;100.00
21658;BME280;10990;48.174;9.782;2023-04-05T02:40:48;95426.84;;;-3.29;100.00
21658;BME280;10990;48.174;9.782;2023-04-05T02:43:15;95410.78;;;-3.19;100.00
21658;BME280;10990;48.174;9.782;2023-04-05T02:45:41;95394.63;;;-3.05;100.00
21658;BME280;10990;48.174;9.782;2023-04-05T02:48:08;95418.84;;;-3.25;100.00
21658;BME280;10990;48.174;9.782;2023-04-05T02:50:35;95420.44;;;-3.22;100.00
21658;BME280;10990;48.174;9.782;2023-04-05T02:53:02;95418.56;;;-3.19;100.00
21658;BME280;10990;48.174;9.782;2023-04-05T02:55:31;95417.25;;;-3.27;100.00
21658;BME280;10990;48.174;9.782;2023-04-05T02:57:59;95418.94;;;-3.26;100.00
21658;BME280;10990;48.174;9.782;2023-04-05T03:00:35;95424.03;;;-3.44;100.00
21658;BME280;10990;48.174;9.782;2023-04-05T03:03:03;95414.16;;;-3.35;100.00
21658;BME280;10990;48.174;9.782;2023-04-05T03:05:31;95413.34;;;-3.36;100.00
21658;BME280;10990;48.174;9.782;2023-04-05T03:07:58;95412.13;;;-3.46;100.00
21658;BME280;10990;48.174;9.782;2023-04-05T03:10:30;95421.97;;;-3.54;100.00
21658;BME280;10990;48.174;9.782;2023-04-05T03:13:07;95406.38;;;-3.53;100.00
21658;BME280;10990;48.174;9.782;2023-04-05T03:15:34;95401.53;;;-3.61;100.00
21658;BME280;10990;48.174;9.782;2023-04-05T03:18:07;95401.00;;;-3.67;100.00
21658;BME280;10990;48.174;9.782;2023-04-05T03:20:35;95393.38;;;-3.70;100.00
21658;BME280;10990;48.174;9.782;2023-04-05T03:23:06;95382.97;;;-3.50;100.00
21658;BME280;10990;48.174;9.782;2023-04-05T03:25:35;95394.75;;;-3.44;100.00
21658;BME280;10990;48.174;9.782;2023-04-05T03:28:04;95387.44;;;-3.53;100.00
21658;BME280;10990;48.174;9.782;2023-04-05T03:30:33;95384.78;;;-3.52;100.00
21658;BME280;10990;48.174;9.782;2023-04-05T03:33:11;95379.81;;;-3.38;100.00
21658;BME280;10990;48.174;9.782;2023-04-05T03:35:42;95414.31;;;-3.95;100.00
21658;BME280;10990;48.174;9.782;2023-04-05T03:38:10;95384.47;;;-3.63;100.00
21658;BME280;10990;48.174;9.782;2023-04-05T03:40:47;95389.97;;;-3.71;100.00
21658;BME280;10990;48.174;9.782;2023-04-05T03:43:13;95385.84;;;-3.75;100.00
21658;BME280;10990;48.174;9.782;2023-04-05T03:45:41;95369.16;;;-3.68;100.00
21658;BME280;10990;48.174;9.782;2023-04-05T03:48:08;95361.59;;;-3.72;100.00
21658;BME280;10990;48.174;9.782;2023-04-05T03:50:35;95362.09;;;-3.64;100.00
21658;BME280;10990;48.174;9.782;2023-04-05T03:53:02;95361.53;;;-3.71;100.00
21658;BME280;10990;48.174;9.782;2023-04-05T03:55:30;95368.94;;;-3.82;100.00
21658;BME280;10990;48.174;9.782;2023-04-05T03:58:03;95367.06;;;-3.78;100.00
21658;BME280;10990;48.174;9.782;2023-04-05T04:00:34;95365.16;;;-3.75;100.00
21658;BME280;10990;48.174;9.782;2023-04-05T04:03:27;95364.06;;;-3.88;100.00
21658;BME280;10990;48.174;9.782;2023-04-05T04:05:55;95363.22;;;-3.89;100.00
21658;BME280;10990;48.174;9.782;2023-04-05T04:08:22;95359.44;;;-4.00;100.00
21658;BME280;10990;48.174;9.782;2023-04-05T04:10:50;95353.44;;;-4.01;100.00
21658;BME280;10990;48.174;9.782;2023-04-05T04:13:25;95354.06;;;-3.96;100.00
21658;BME280;10990;48.174;9.782;2023-04-05T04:16:27;95342.91;;;-3.96;100.00
21658;BME280;10990;48.174;9.782;2023-04-05T04:19:00;95334.84;;;-4.28;100.00
21658;BME280;10990;48.174;9.782;2023-04-05T04:21:50;95318.09;;;-4.38;100.00
21658;BME280;10990;48.174;9.782;2023-04-05T04:24:42;95293.41;;;-4.06;100.00
21658;BME280;10990;48.174;9.782;2023-04-05T04:27:29;95284.13;;;-3.91;100.00
21658;BME280;10990;48.174;9.782;2023-04-05T04:30:16;95294.25;;;-4.06;100.00
21658;BME280;10990;48.174;9.782;2023-04-05T04:33:08;95291.88;;;-4.10;100.00
21658;BME280;10990;48.174;9.782;2023-04-05T04:35:35;95273.81;;;-3.91;100.00
21658;BME280;10990;48.174;9.782;2023-04-05T04:38:21;95271.47;;;-3.78;100.00
21658;BME280;10990;48.174;9.782;2023-04-05T04:40:59;95276.34;;;-3.72;100.00
21658;BME280;10990;48.174;9.782;2023-04-05T04:43:32;95303.88;;;-3.90;100.00
21658;BME280;10990;48.174;9.782;2023-04-05T04:46:18;95309.72;;;-3.87;100.00
21658;BME280;10990;48.174;9.782;2023-04-05T04:49:17;95318.59;;;-3.92;100.00
21658;BME280;10990;48.174;9.782;2023-04-05T04:51:47;95317.81;;;-3.94;100.00
21658;BME280;10990;48.174;9.782;2023-04-05T04:54:15;95325.47;;;-3.91;100.00
21658;BME280;10990;48.174;9.782;2023-04-05T04:56:45;95328.66;;;-3.86;100.00
21658;BME280;10990;48.174;9.782;2023-04-05T04:59:12;95329.75;;;-3.92;100.00
21658;BME280;10990;48.174;9.782;2023-04-05T05:01:40;95332.09;;;-4.04;100.00
21658;BME280;10990;48.174;9.782;2023-04-05T05:04:09;95325.72;;;-3.78;100.00
21658;BME280;10990;48.174;9.782;2023-04-05T05:06:38;95319.44;;;-3.73;100.00
21658;BME280;10990;48.174;9.782;2023-04-05T05:09:04;95332.78;;;-3.82;100.00
21658;BME280;10990;48.174;9.782;2023-04-05T05:11:36;95327.47;;;-3.79;100.00
21658;BME280;10990;48.174;9.782;2023-04-05T05:14:06;95330.19;;;-4.01;100.00
21658;BME280;10990;48.174;9.782;2023-04-05T05:16:33;95326.50;;;-3.95;100.00
21658;BME280;10990;48.174;9.782;2023-04-05T05:19:01;95322.16;;;-3.95;100.00
21658;BME280;10990;48.174;9.782;2023-04-05T05:21:38;95294.38;;;-3.53;100.00
21658;BME280;10990;48.174;9.782;2023-04-05T05:24:05;95308.75;;;-3.65;100.00
21658;BME280;10990;48.174;9.782;2023-04-05T05:26:34;95285.19;;;-3.24;100.00
21658;BME280;10990;48.174;9.782;2023-04-05T05:29:02;95280.28;;;-3.11;100.00
21658;BME280;10990;48.174;9.782;2023-04-05T05:31:32;95294.81;;;-3.09;100.00
21658;BME280;10990;48.174;9.782;2023-04-05T05:33:59;95301.47;;;-2.87;100.00
21658;BME280;10990;48.174;9.782;2023-04-05T05:36:27;95311.53;;;-2.99;100.00
21658;BME280;10990;48.174;9.782;2023-04-05T05:38:55;95322.94;;;-2.68;100.00
21658;BME280;10990;48.174;9.782;2023-04-05T05:41:22;95323.19;;;-2.39;100.00
21658;BME280;10990;48.174;9.782;2023-04-05T05:43:48;95347.09;;;-2.34;100.00
21658;BME280;10990;48.174;9.782;2023-04-05T05:46:15;95353.34;;;-2.38;100.00
21658;BME280;10990;48.174;9.782;2023-04-05T05:48:43;95358.09;;;-2.13;100.00
21658;BME280;10990;48.174;9.782;2023-04-05T05:51:10;95359.44;;;-2.06;100.00
21658;BME280;10990;48.174;9.782;2023-04-05T05:53:38;95360.06;;;-1.69;100.00
21658;BME280;10990;48.174;9.782;2023-04-05T05:56:05;95378.22;;;-1.69;100.00
21658;BME280;10990;48.174;9.782;2023-04-05T05:58:32;95390.00;;;-1.64;100.00
21658;BME280;10990;48.174;9.782;2023-04-05T06:00:59;95409.69;;;-1.44;100.00
21658;BME280;10990;48.174;9.782;2023-04-05T06:03:28;95419.22;;;-1.28;100.00
21658;BME280;10990;48.174;9.782;2023-04-05T06:05:56;95422.56;;;-1.10;100.00
21658;BME280;10990;48.174;9.782;2023-04-05T06:08:24;95430.41;;;-0.96;100.00
21658;BME280;10990;48.174;9.782;2023-04-05T06:10:53;95446.22;;;-0.69;100.00
21658;BME280;10990;48.174;9.782;2023-04-05T06:13:20;95470.84;;;-0.30;100.00
21658;BME280;10990;48.174;9.782;2023-04-05T06:15:47;95501.13;;;0.15;100.00
21658;BME280;10990;48.174;9.782;2023-04-05T06:18:14;95551.72;;;0.10;100.00
21658;BME280;10990;48.174;9.782;2023-04-05T06:20:41;95574.88;;;0.14;100.00
21658;BME280;10990;48.174;9.782;2023-04-05T06:23:09;95618.38;;;-0.19;100.00
21658;BME280;10990;48.174;9.782;2023-04-05T06:25:36;95640.84;;;-0.03;100.00
21658;BME280;10990;48.174;9.782;2023-04-05T06:28:05;95671.59;;;0.05;100.00
21658;BME280;10990;48.174;9.782;2023-04-05T06:30:32;95693.56;;;0.15;100.00
21658;BME280;10990;48.174;9.782;2023-04-05T06:33:00;95701.66;;;0.41;100.00
21658;BME280;10990;48.174;9.782;2023-04-05T06:35:27;95721.38;;;0.45;100.00
21658;BME280;10990;48.174;9.782;2023-04-05T06:37:53;95750.63;;;0.64;100.00
21658;BME280;10990;48.174;9.782;2023-04-05T06:40:20;95768.44;;;0.56;100.00
21658;BME280;10990;48.174;9.782;2023-04-05T06:42:47;95798.25;;;0.66;100.00
21658;BME280;10990;48.174;9.782;2023-04-05T06:45:20;95831.25;;;0.18;100.00
21658;BME280;10990;48.174;9.782;2023-04-05T06:47:47;95821.44;;;0.71;100.00
21658;BME280;10990;48.174;9.782;2023-04-05T06:50:14;95844.94;;;0.85;100.00
21658;BME280;10990;48.174;9.782;2023-04-05T06:52:41;95862.22;;;0.55;100.00
21658;BME280;10990;48.174;9.782;2023-04-05T06:55:08;95853.56;;;0.86;100.00
21658;BME280;10990;48.174;9.782;2023-04-05T06:57:35;95856.47;;;1.72;100.00
21658;BME280;10990;48.174;9.782;2023-04-05T07:00:02;95885.09;;;1.57;100.00
21658;BME280;10990;48.174;9.782;2023-04-05T07:02:36;95903.38;;;1.42;100.00
21658;BME280;10990;48.174;9.782;2023-04-05T07:05:03;95912.56;;;2.22;100.00
21658;BME280;10990;48.174;9.782;2023-04-05T07:07:30;95934.09;;;2.83;100.00
21658;BME280;10990;48.174;9.782;2023-04-05T07:09:57;95961.81;;;2.71;100.00
21658;BME280;10990;48.174;9.782;2023-04-05T07:12:24;95985.88;;;3.32;100.00
21658;BME280;10990;48.174;9.782;2023-04-05T07:14:51;96013.44;;;3.65;100.00
21658;BME280;10990;48.174;9.782;2023-04-05T07:17:17;96033.22;;;3.96;100.00
21658;BME280;10990;48.174;9.782;2023-04-05T07:19:45;96047.56;;;4.56;100.00
21658;BME280;10990;48.174;9.782;2023-04-05T07:22:12;96064.66;;;4.61;100.00
21658;BME280;10990;48.174;9.782;2023-04-05T07:24:39;96078.53;;;5.14;100.00
21658;BME280;10990;48.174;9.782;2023-04-05T07:27:05;96101.06;;;4.91;100.00
21658;BME280;10990;48.174;9.782;2023-04-05T07:29:32;96109.63;;;4.55;100.00
21658;BME280;10990;48.174;9.782;2023-04-05T07:32:05;96118.34;;;4.68;100.00
21658;BME280;10990;48.174;9.782;2023-04-05T07:34:31;96115.84;;;5.44;100.00
21658;BME280;10990;48.174;9.782;2023-04-05T07:36:59;96133.72;;;5.13;100.00
21658;BME280;10990;48.174;9.782;2023-04-05T07:39:27;96123.16;;;5.51;100.00
21658;BME280;10990;48.174;9.782;2023-04-05T07:41:54;96131.38;;;5.08;100.00
21658;BME280;10990;48.174;9.782;2023-04-05T07:44:21;96123.97;;;5.77;100.00
21658;BME280;10990;48.174;9.782;2023-04-05T07:46:47;96122.09;;;6.40;100.00
21658;BME280;10990;48.174;9.782;2023-04-05T07:49:14;96140.13;;;5.71;100.00
21658;BME280;10990;48.174;9.782;2023-04-05T07:51:41;96151.00;;;5.28;100.00
21658;BME280;10990;48.174;9.782;2023-04-05T07:54:09;96141.13;;;6.20;100.00
21658;BME280;10990;48.174;9.782;2023-04-05T07:56:36;96133.56;;;6.15;100.00
21658;BME280;10990;48.174;9.782;2023-04-05T07:59:03;96138.09;;;7.08;100.00
21658;BME280;10990;48.174;9.782;2023-04-05T08:01:29;96148.41;;;6.03;100.00
21658;BME280;10990;48.174;9.782;2023-04-05T08:03:56;96151.06;;;5.78;100.00
21658;BME280;10990;48.174;9.782;2023-04-05T08:06:23;96147.19;;;6.20;100.00
21658;BME280;10990;48.174;9.782;2023-04-05T08:08:50;96151.38;;;6.47;100.00
21658;BME280;10990;48.174;9.782;2023-04-05T08:11:19;96157.41;;;6.60;100.00
21658;BME280;10990;48.174;9.782;2023-04-05T08:13:46;96139.47;;;7.47;100.00
21658;BME280;10990;48.174;9.782;2023-04-05T08:16:13;96129.03;;;8.02;100.00
21658;BME280;10990;48.174;9.782;2023-04-05T08:18:39;96127.03;;;9.23;100.00
21658;BME280;10990;48.174;9.782;2023-04-05T08:21:06;96140.13;;;8.39;100.00
21658;BME280;10990;48.174;9.782;2023-04-05T08:23:33;96133.66;;;8.64;100.00
21658;BME280;10990;48.174;9.782;2023-04-05T08:25:59;96127.38;;;7.90;100.00
21658;BME280;10990;48.174;9.782;2023-04-05T08:28:28;96144.50;;;6.33;100.00
21658;BME280;10990;48.174;9.782;2023-04-05T08:30:55;96132.91;;;6.95;100.00
21658;BME280;10990;48.174;9.782;2023-04-05T08:33:22;96134.56;;;7.43;100.00
21658;BME280;10990;48.174;9.782;2023-04-05T08:35:50;96139.91;;;6.72;100.00
21658;BME280;10990;48.174;9.782;2023-04-05T08:38:16;96141.94;;;6.44;100.00
21658;BME280;10990;48.174;9.782;2023-04-05T08:40:44;96147.66;;;6.62;100.00
21658;BME280;10990;48.174;9.782;2023-04-05T08:43:16;96139.00;;;7.42;100.00
21658;BME280;10990;48.174;9.782;2023-04-05T08:45:49;96128.13;;;7.80;100.00
21658;BME280;10990;48.174;9.782;2023-04-05T08:48:16;96136.19;;;6.99;99.05
21658;BME280;10990;48.174;9.782;2023-04-05T08:50:49;96138.00;;;7.32;100.00
21658;BME280;10990;48.174;9.782;2023-04-05T08:53:17;96123.03;;;8.87;100.00
21658;BME280;10990;48.174;9.782;2023-04-05T08:55:48;96130.75;;;7.58;100.00
21658;BME280;10990;48.174;9.782;2023-04-05T08:58:17;96137.91;;;7.56;100.00
21658;BME280;10990;48.174;9.782;2023-04-05T09:00:48;96123.06;;;8.75;98.85
21658;BME280;10990;48.174;9.782;2023-04-05T09:03:17;96133.84;;;7.85;97.60
21658;BME280;10990;48.174;9.782;2023-04-05T09:05:48;96128.19;;;8.01;97.88
21658;BME280;10990;48.174;9.782;2023-04-05T09:08:15;96140.13;;;7.04;99.86
21658;BME280;10990;48.174;9.782;2023-04-05T09:10:42;96128.31;;;8.11;98.68
21658;BME280;10990;48.174;9.782;2023-04-05T09:13:09;96128.25;;;9.19;95.53
21658;BME280;10990;48.174;9.782;2023-04-05T09:15:36;96124.84;;;9.07;94.14
21658;BME280;10990;48.174;9.782;2023-04-05T09:18:05;96126.38;;;9.52;91.98
21658;BME280;10990;48.174;9.782;2023-04-05T09:20:32;96125.59;;;8.98;90.86
21658;BME280;10990;48.174;9.782;2023-04-05T09:22:58;96133.22;;;9.12;91.34
21658;BME280;10990;48.174;9.782;2023-04-05T09:25:36;96129.00;;;8.89;85.71
21658;BME280;10990;48.174;9.782;2023-04-05T09:28:04;96131.66;;;9.31;88.82
21658;BME280;10990;48.174;9.782;2023-04-05T09:30:31;96131.38;;;9.85;87.38
21658;BME280;10990;48.174;9.782;2023-04-05T09:33:00;96131.16;;;9.16;78.27
21658;BME280;10990;48.174;9.782;2023-04-05T09:35:29;96120.81;;;10.36;66.08
21658;BME280;10990;48.174;9.782;2023-04-05T09:37:57;96105.81;;;10.85;60.23
21658;BME280;10990;48.174;9.782;2023-04-05T09:40:39;96122.78;;;8.90;57.74
21658;BME280;10990;48.174;9.782;2023-04-05T09:43:07;96132.06;;;8.52;61.47
21658;BME280;10990;48.174;9.782;2023-04-05T09:45:38;96122.06;;;8.88;64.46
21658;BME280;10990;48.174;9.782;2023-04-05T09:48:06;96135.94;;;8.25;65.20
21658;BME280;10990;48.174;9.782;2023-04-05T09:50:34;96141.16;;;8.59;65.48
21658;BME280;10990;48.174;9.782;2023-04-05T09:53:06;96143.66;;;7.27;69.42
21658;BME280;10990;48.174;9.782;2023-04-05T09:55:33;96148.44;;;7.33;71.33
21658;BME280;10990;48.174;9.782;2023-04-05T09:58:00;96134.97;;;8.26;69.86
21658;BME280;10990;48.174;9.782;2023-04-05T10:00:28;96131.06;;;9.48;66.34
21658;BME280;10990;48.174;9.782;2023-04-05T10:02:55;96127.59;;;9.06;61.22
21658;BME280;10990;48.174;9.782;2023-04-05T10:05:24;96122.66;;;9.12;64.71
21658;BME280;10990;48.174;9.782;2023-04-05T10:07:54;96124.50;;;9.01;63.10
21658;BME280;10990;48.174;9.782;2023-04-05T10:10:21;96120.66;;;9.05;62.93
21658;BME280;10990;48.174;9.782;2023-04-05T10:12:49;96122.94;;;10.01;68.09
21658;BME280;10990;48.174;9.782;2023-04-05T10:15:16;96139.13;;;7.74;65.94
21658;BME280;10990;48.174;9.782;2023-04-05T10:17:48;96134.31;;;7.79;67.68
21658;BME280;10990;48.174;9.782;2023-04-05T10:20:19;96135.91;;;8.37;67.80
21658;BME280;10990;48.174;9.782;2023-04-05T10:22:59;96129.91;;;8.35;65.91
21658;BME280;10990;48.174;9.782;2023-04-05T10:25:35;96123.06;;;8.75;64.89
21658;BME280;10990;48.174;9.782;2023-04-05T10:28:09;96124.63;;;9.20;63.93
21658;BME280;10990;48.174;9.782;2023-04-05T10:30:40;96113.22;;;9.10;61.67
21658;BME280;10990;48.174;9.782;2023-04-05T10:33:15;96095.91;;;10.87;59.88
21658;BME280;10990;48.174;9.782;2023-04-05T10:35:59;96120.00;;;10.04;59.29
21658;BME280;10990;48.174;9.782;2023-04-05T10:38:35;96121.06;;;9.21;59.74
21658;BME280;10990;48.174;9.782;2023-04-05T10:41:10;96118.91;;;9.36;59.49
21658;BME280;10990;48.174;9.782;2023-04-05T10:43:39;96104.91;;;9.76;62.89
21658;BME280;10990;48.174;9.782;2023-04-05T10:46:09;96115.09;;;9.50;63.60
21658;BME280;10990;48.174;9.782;2023-04-05T10:48:43;96116.66;;;9.31;66.26
21658;BME280;10990;48.174;9.782;2023-04-05T10:51:11;96125.09;;;7.85;66.53
21658;BME280;10990;48.174;9.782;2023-04-05T10:53:40;96118.22;;;9.13;62.55
21658;BME280;10990;48.174;9.782;2023-04-05T10:56:07;96110.81;;;9.58;59.56
21658;BME280;10990;48.174;9.782;2023-04-05T10:58:34;96124.19;;;8.29;60.94
21658;BME280;10990;48.174;9.782;2023-04-05T11:01:02;96131.56;;;7.36;62.09
21658;BME280;10990;48.174;9.782;2023-04-05T11:03:49;96133.91;;;7.05;65.57
21658;BME280;10990;48.174;9.782;2023-04-05T11:06:21;96118.41;;;7.58;64.06
21658;BME280;10990;48.174;9.782;2023-04-05T11:08:52;96107.03;;;9.51;63.63
21658;BME280;10990;48.174;9.782;2023-04-05T11:11:21;96106.75;;;8.06;63.78
21658;BME280;10990;48.174;9.782;2023-04-05T11:13:50;96121.16;;;7.46;68.89
21658;BME280;10990;48.174;9.782;2023-04-05T11:16:17;96128.63;;;6.35;75.67
21658;BME280;10990;48.174;9.782;2023-04-05T11:18:44;96111.50;;;7.46;79.78
21658;BME280;10990;48.174;9.782;2023-04-05T11:21:19;96107.66;;;7.50;82.82
21658;BME280;10990;48.174;9.782;2023-04-05T11:24:02;96110.88;;;7.65;80.47
21658;BME280;10990;48.174;9.782;2023-04-05T11:26:33;96104.03;;;7.74;79.67
21658;BME280;10990;48.174;9.782;2023-04-05T11:29:18;96098.50;;;7.88;82.04
21658;BME280;10990;48.174;9.782;2023-04-05T11:31:57;96107.94;;;7.01;76.11
21658;BME280;10990;48.174;9.782;2023-04-05T11:34:25;96105.31;;;7.01;75.91
21658;BME280;10990;48.174;9.782;2023-04-05T11:36:52;96099.91;;;6.80;73.25
21658;BME280;10990;48.174;9.782;2023-04-05T11:39:24;96089.34;;;7.37;73.73
21658;BME280;10990;48.174;9.782;2023-04-05T11:41:57;96098.50;;;7.09;74.40
21658;BME280;10990;48.174;9.782;2023-04-05T11:44:24;96099.00;;;6.57;73.81
21658;BME280;10990;48.174;9.782;2023-04-05T11:46:51;96088.63;;;7.35;72.57
21658;BME280;10990;48.174;9.782;2023-04-05T11:49:20;96083.00;;;7.29;71.79
21658;BME280;10990;48.174;9.782;2023-04-05T11:51:49;96084.47;;;6.75;74.85
21658;BME280;10990;48.174;9.782;2023-04-05T11:54:28;96097.72;;;6.62;75.59
21658;BME280;10990;48.174;9.782;2023-04-05T11:56:56;96103.22;;;6.35;75.92
21658;BME280;10990;48.174;9.782;2023-04-05T11:59:30;96080.50;;;7.61;75.47
21658;BME280;10990;48.174;9.782;2023-04-05T12:01:58;96082.38;;;7.14;72.06
21658;BME280;10990;48.174;9.782;2023-04-05T12:04:24;96071.28;;;7.44;67.88
21658;BME280;10990;48.174;9.782;2023-04-05T12:07:13;96078.09;;;7.58;71.00
21658;BME280;10990;48.174;9.782;2023-04-05T12:10:02;96072.88;;;8.01;71.42
21658;BME280;10990;48.174;9.782;2023-04-05T12:12:34;96087.03;;;6.88;72.33
21658;BME280;10990;48.174;9.782;2023-04-05T12:15:02;96080.25;;;6.61;76.77
21658;BME280;10990;48.174;9.782;2023-04-05T12:17:42;96066.78;;;8.01;76.10
21658;BME280;10990;48.174;9.782;2023-04-05T12:20:10;96063.94;;;7.81;72.63
21658;BME280;10990;48.174;9.782;2023-04-05T12:22:39;96062.56;;;8.09;72.61
21658;BME280;10990;48.174;9.782;2023-04-05T12:25:09;96063.16;;;7.58;77.06
21658;BME280;10990;48.174;9.782;2023-04-05T12:27:37;96065.44;;;7.40;76.25
21658;BME280;10990;48.174;9.782;2023-04-05T12:30:08;96066.56;;;6.91;74.02
21658;BME280;10990;48.174;9.782;2023-04-05T12:32:39;96056.13;;;7.91;75.77
21658;BME280;10990;48.174;9.782;2023-04-05T12:35:09;96057.63;;;7.61;71.52
21658;BME280;10990;48.174;9.782;2023-04-05T12:37:37;96054.78;;;7.31;71.52
21658;BME280;10990;48.174;9.782;2023-04-05T12:40:04;96061.09;;;7.62;67.72
21658;BME280;10990;48.174;9.782;2023-04-05T12:42:34;96048.09;;;7.49;69.87
21658;BME280;10990;48.174;9.782;2023-04-05T12:45:02;96052.38;;;7.61;71.73
21658;BME280;10990;48.174;9.782;2023-04-05T12:47:32;96046.88;;;7.42;73.58
21658;BME280;10990;48.174;9.782;2023-04-05T12:50:09;96045.31;;;7.28;72.85
21658;BME280;10990;48.174;9.782;2023-04-05T12:52:36;96053.09;;;7.18;70.85
21658;BME280;10990;48.174;9.782;2023-04-05T12:55:03;96045.19;;;7.63;73.96
21658;BME280;10990;48.174;9.782;2023-04-05T12:57:30;96058.44;;;6.83;74.89
21658;BME280;10990;48.174;9.782;2023-04-05T12:59:58;96043.66;;;7.27;72.77
21658;BME280;10990;48.174;9.782;2023-04-05T13:02:25;96034.69;;;7.41;72.70
21658;BME280;10990;48.174;9.782;2023-04-05T13:04:52;96033.97;;;7.28;73.04
21658;BME280;10990;48.174;9.782;2023-04-05T13:07:19;96040.75;;;7.64;74.01
21658;BME280;10990;48.174;9.782;2023-04-05T13:09:46;96032.38;;;7.59;74.86
21658;BME280;10990;48.174;9.782;2023-04-05T13:12:12;96028.69;;;7.61;74.25
21658;BME280;10990;48.174;9.782;2023-04-05T13:14:39;96028.19;;;7.68;75.45
21658;BME280;10990;48.174;9.782;2023-04-05T13:17:07;96028.47;;;7.42;75.86